Time;durP1;ratioP1;P1;durP2;ratioP2;P2;SDS_P1;SDS_P2;PMS_P1;PMS_P2;Temp;Humidity;BMP_temperature;BMP_pressure;BME280_temperature;BME280_humidity;BME280_pressure;Samples;Min_cycle;Max_cycle;Signal;HPM_P1;HPM_P2
2021/04/23 00:01:30;;;;;;;13.88;4.20;;;;;;;6.28;78.89;102240.38;5058546;28;20028;-75
2021/04/23 00:04:01;;;;;;;14.88;4.20;;;;;;;6.24;79.22;102243.13;5065428;28;20037;-75
2021/04/23 00:06:31;;;;;;;8.82;3.72;;;;;;;6.14;79.70;102242.47;5063921;28;20406;-75
2021/04/23 00:09:09;;;;;;;10.25;4.65;;;;;;;6.10;79.87;102238.13;5071685;28;20034;-75
2021/04/23 00:11:42;;;;;;;20.40;5.13;;;;;;;6.01;79.97;102254.31;5065740;28;20078;-76
2021/04/23 00:14:10;;;;;;;14.60;5.07;;;;;;;5.87;80.58;102240.34;5071199;28;20056;-78
2021/04/23 00:16:38;;;;;;;14.35;5.57;;;;;;;5.78;81.03;102248.53;5064130;28;20032;-75
2021/04/23 00:19:09;;;;;;;14.40;5.22;;;;;;;5.77;81.48;102252.09;5070308;28;20040;-75
2021/04/23 00:21:35;;;;;;;12.98;4.13;;;;;;;5.74;81.43;102238.88;5071104;28;20048;-75
2021/04/23 00:24:01;;;;;;;11.30;4.38;;;;;;;5.72;81.36;102246.88;5073662;28;20032;-75
2021/04/23 00:26:26;;;;;;;15.93;4.50;;;;;;;5.72;81.23;102246.00;5068314;28;20028;-75
2021/04/23 00:28:52;;;;;;;11.18;4.28;;;;;;;5.68;81.30;102251.38;5071505;28;20473;-75
2021/04/23 00:31:17;;;;;;;15.27;5.28;;;;;;;5.67;81.37;102264.75;5068576;28;20032;-75
2021/04/23 00:33:43;;;;;;;11.88;4.32;;;;;;;5.63;81.39;102255.91;5068401;28;20028;-77
2021/04/23 00:36:09;;;;;;;13.70;4.38;;;;;;;5.59;81.67;102256.00;5071917;28;20086;-75
2021/04/23 00:38:37;;;;;;;13.48;4.35;;;;;;;5.53;81.98;102250.81;5070414;28;20036;-75
2021/04/23 00:41:09;;;;;;;12.55;4.28;;;;;;;5.48;82.44;102253.56;5070498;28;20040;-75
2021/04/23 00:43:39;;;;;;;20.85;4.35;;;;;;;5.45;82.40;102250.94;5071398;28;20063;-74
2021/04/23 00:46:05;;;;;;;16.60;5.05;;;;;;;5.44;82.53;102243.84;5085454;28;20044;-75
2021/04/23 00:48:33;;;;;;;17.30;5.68;;;;;;;5.43;82.46;102250.09;5069814;28;20124;-75
2021/04/23 00:51:08;;;;;;;16.15;5.25;;;;;;;5.41;82.63;102251.03;5061781;28;20037;-75
2021/04/23 00:53:39;;;;;;;9.35;5.00;;;;;;;5.34;82.78;102244.06;5053646;28;20029;-75
2021/04/23 00:56:13;;;;;;;16.48;6.05;;;;;;;5.26;83.17;102252.19;5069877;28;20043;-75
2021/04/23 00:58:39;;;;;;;16.77;4.32;;;;;;;5.15;83.61;102248.84;5066861;28;20032;-75
2021/04/23 01:01:08;;;;;;;13.95;4.47;;;;;;;5.06;84.10;102249.88;5067974;28;20146;-75
2021/04/23 01:03:35;;;;;;;15.57;6.00;;;;;;;5.00;84.50;102249.13;5070706;28;20488;-74
2021/04/23 01:06:06;;;;;;;27.77;6.95;;;;;;;4.91;85.00;102254.59;5071438;28;20025;-76
2021/04/23 01:08:32;;;;;;;20.83;6.03;;;;;;;4.83;85.53;102247.59;5070728;28;20028;-75
2021/04/23 01:11:00;;;;;;;18.77;5.18;;;;;;;4.82;85.67;102244.94;5069461;28;21642;-75
2021/04/23 01:13:34;;;;;;;18.42;6.00;;;;;;;4.76;85.92;102250.38;5061952;28;20033;-75
2021/04/23 01:16:06;;;;;;;13.80;5.35;;;;;;;4.75;86.00;102254.81;5067663;28;20035;-75
2021/04/23 01:18:33;;;;;;;16.73;5.07;;;;;;;4.76;85.82;102255.69;5066449;28;20036;-75
2021/04/23 01:21:09;;;;;;;10.48;4.93;;;;;;;4.76;85.63;102256.56;5069891;28;20028;-75
2021/04/23 01:23:36;;;;;;;14.57;5.07;;;;;;;4.76;85.28;102256.56;5069112;28;20029;-76
2021/04/23 01:26:05;;;;;;;17.13;5.28;;;;;;;4.74;85.30;102253.09;5057694;28;20566;-75
2021/04/23 01:28:31;;;;;;;14.27;5.20;;;;;;;4.71;85.47;102254.88;5068626;28;20485;-75
2021/04/23 01:30:57;;;;;;;12.90;5.47;;;;;;;4.64;85.89;102255.88;5061218;28;20029;-75
2021/04/23 01:33:24;;;;;;;13.30;5.30;;;;;;;4.59;86.39;102253.31;5063674;28;20024;-74
2021/04/23 01:35:49;;;;;;;16.88;5.45;;;;;;;4.59;86.48;102255.97;5067480;28;20036;-76
2021/04/23 01:38:15;;;;;;;21.33;5.65;;;;;;;4.56;86.60;102264.00;5064983;28;20086;-74
2021/04/23 01:40:42;;;;;;;10.95;5.18;;;;;;;4.52;86.57;102266.72;5058029;28;20028;-75
2021/04/23 01:43:08;;;;;;;15.57;5.82;;;;;;;4.47;87.14;102257.03;5060698;28;20181;-75
2021/04/23 01:45:34;;;;;;;14.57;5.68;;;;;;;4.44;87.35;102266.84;5058422;28;20055;-76
2021/04/23 01:48:00;;;;;;;19.80;5.90;;;;;;;4.40;87.55;102257.13;5061372;28;20028;-75
2021/04/23 01:50:26;;;;;;;15.07;6.25;;;;;;;4.36;87.86;102260.75;5065447;28;20467;-75
2021/04/23 01:52:51;;;;;;;13.70;5.30;;;;;;;4.36;88.02;102260.75;5051909;28;20040;-75
2021/04/23 01:55:20;;;;;;;15.45;6.72;;;;;;;4.35;87.73;102253.66;5061856;28;20441;-74
2021/04/23 01:57:47;;;;;;;16.50;5.38;;;;;;;4.36;87.44;102266.06;5062420;28;20028;-74
2021/04/23 02:00:23;;;;;;;15.00;5.43;;;;;;;4.34;87.29;102257.22;5065568;28;20037;-76
2021/04/23 02:02:53;;;;;;;16.27;6.13;;;;;;;4.30;87.34;102260.84;5066012;28;20041;-74
2021/04/23 02:05:20;;;;;;;15.85;6.28;;;;;;;4.24;87.59;102259.13;5067596;28;20036;-76
2021/04/23 02:07:45;;;;;;;14.13;5.93;;;;;;;4.22;87.66;102260.94;5069402;28;20024;-75
2021/04/23 02:10:18;;;;;;;11.77;5.68;;;;;;;4.19;87.61;102263.66;5063841;28;20032;-75
2021/04/23 02:12:45;;;;;;;13.57;5.20;;;;;;;4.19;87.55;102268.09;5066820;28;22521;-74
2021/04/23 02:15:13;;;;;;;13.48;5.68;;;;;;;4.16;87.51;102263.66;5070392;28;20020;-76
2021/04/23 02:17:41;;;;;;;17.05;5.85;;;;;;;4.16;87.32;102265.44;5069552;28;20036;-75
2021/04/23 02:20:12;;;;;;;15.32;5.57;;;;;;;4.12;87.35;102271.72;5066613;28;20032;-77
2021/04/23 02:22:37;;;;;;;13.90;5.95;;;;;;;4.07;87.51;102275.28;5066445;28;20052;-75
2021/04/23 02:25:05;;;;;;;18.15;7.38;;;;;;;4.04;87.59;102269.16;5068107;28;20509;-74
2021/04/23 02:27:30;;;;;;;14.57;5.90;;;;;;;4.00;87.94;102267.44;5067737;28;20510;-77
2021/04/23 02:29:55;;;;;;;13.80;5.50;;;;;;;3.93;87.97;102269.28;5074655;28;20036;-75
2021/04/23 02:32:21;;;;;;;14.07;5.70;;;;;;;3.89;88.27;102264.88;5052353;28;20031;-74
2021/04/23 02:34:47;;;;;;;16.13;5.63;;;;;;;3.85;88.55;102267.59;5057346;28;20048;-75
2021/04/23 02:37:12;;;;;;;27.45;7.03;;;;;;;3.83;88.79;102270.28;5069567;28;20105;-74
2021/04/23 02:39:37;;;;;;;14.95;6.28;;;;;;;3.83;88.85;102275.59;5068767;28;20103;-74
2021/04/23 02:42:03;;;;;;;22.00;6.45;;;;;;;3.77;89.01;102275.66;5068833;28;20055;-74
2021/04/23 02:44:29;;;;;;;17.50;6.15;;;;;;;3.72;89.38;102277.50;5067384;28;20047;-75
2021/04/23 02:46:55;;;;;;;15.27;6.60;;;;;;;3.68;89.61;102281.09;5063898;28;20043;-76
2021/04/23 02:49:20;;;;;;;18.63;6.03;;;;;;;3.64;89.88;102280.22;5070338;28;20489;-74
2021/04/23 02:51:47;;;;;;;14.52;5.45;;;;;;;3.63;89.88;102288.22;5063509;28;20040;-75
2021/04/23 02:54:13;;;;;;;17.45;6.07;;;;;;;3.64;89.90;102290.00;5069482;28;20492;-74
2021/04/23 02:56:39;;;;;;;13.52;5.75;;;;;;;3.64;89.53;102290.00;5066833;28;20574;-74
2021/04/23 02:59:06;;;;;;;19.48;6.03;;;;;;;3.61;89.45;102287.34;5061076;28;20040;-75
2021/04/23 03:01:40;;;;;;;22.27;6.65;;;;;;;3.61;89.38;102284.69;5068703;28;20032;-74
2021/04/23 03:04:06;;;;;;;15.70;7.50;;;;;;;3.60;89.48;102290.91;5066773;28;20124;-74
2021/04/23 03:06:32;;;;;;;16.05;6.72;;;;;;;3.58;89.39;102290.06;5067200;28;20111;-74
2021/04/23 03:08:58;;;;;;;23.17;6.35;;;;;;;3.53;89.27;102297.16;5060459;28;20473;-74
2021/04/23 03:11:24;;;;;;;23.40;6.75;;;;;;;3.45;89.74;102297.28;5067006;28;20031;-74
2021/04/23 03:13:53;;;;;;;18.95;6.63;;;;;;;3.36;90.13;102299.13;5051572;28;20032;-74
2021/04/23 03:16:19;;;;;;;18.88;7.25;;;;;;;3.30;90.79;102305.38;5068794;28;20047;-74
2021/04/23 03:18:46;;;;;;;17.98;6.57;;;;;;;3.26;91.18;102303.63;5069236;28;20032;-74
2021/04/23 03:21:14;;;;;;;18.40;6.80;;;;;;;3.25;91.44;102313.38;5054732;28;20024;-74
2021/04/23 03:23:40;;;;;;;14.15;6.55;;;;;;;3.24;91.44;102314.25;5071301;28;20108;-74
2021/04/23 03:26:08;;;;;;;17.02;6.35;;;;;;;3.24;91.46;102316.91;5067824;28;20123;-75
2021/04/23 03:28:34;;;;;;;21.83;6.30;;;;;;;3.22;91.18;102313.38;5057791;28;20146;-74
2021/04/23 03:31:01;;;;;;;19.08;6.93;;;;;;;3.23;91.21;102314.28;5066350;28;20068;-76
2021/04/23 03:33:26;;;;;;;18.08;7.05;;;;;;;3.21;91.20;102316.94;5069186;28;20423;-74
2021/04/23 03:35:55;;;;;;;16.27;6.10;;;;;;;3.20;91.04;102320.50;5066689;28;20108;-74
2021/04/23 03:38:23;;;;;;;14.15;6.28;;;;;;;3.17;90.96;102323.16;5064287;28;20081;-75
2021/04/23 03:40:49;;;;;;;18.33;6.53;;;;;;;3.14;90.73;102320.56;5051741;28;20542;-74
2021/04/23 03:43:15;;;;;;;17.00;6.72;;;;;;;3.12;90.71;102322.31;5063243;28;20037;-74
2021/04/23 03:45:40;;;;;;;19.77;6.97;;;;;;;3.10;90.55;102321.44;5069920;28;20028;-74
2021/04/23 03:48:07;;;;;;;21.83;7.13;;;;;;;3.06;90.63;102319.72;5062101;28;20477;-74
2021/04/23 03:50:34;;;;;;;25.88;7.00;;;;;;;3.03;90.82;102317.06;5070011;28;20404;-75
2021/04/23 03:53:03;;;;;;;13.05;6.68;;;;;;;3.02;90.79;102325.06;5070225;28;20074;-73
2021/04/23 03:55:31;;;;;;;17.20;6.85;;;;;;;2.99;90.90;102320.66;5068447;28;20430;-74
2021/04/23 03:57:58;;;;;;;18.90;7.90;;;;;;;2.95;91.08;102323.34;5068471;28;20032;-75
2021/04/23 04:00:29;;;;;;;17.40;7.40;;;;;;;2.92;91.20;102318.94;5062502;28;20028;-74
2021/04/23 04:02:55;;;;;;;24.98;9.07;;;;;;;2.88;91.28;102322.50;5069543;28;20051;-74
2021/04/23 04:05:21;;;;;;;23.52;7.75;;;;;;;2.87;91.17;102322.50;5068154;28;20026;-74
2021/04/23 04:07:47;;;;;;;21.10;7.70;;;;;;;2.84;91.48;102324.28;5067436;28;20401;-74
2021/04/23 04:10:13;;;;;;;19.00;7.38;;;;;;;2.82;91.57;102327.88;5063220;28;20402;-74
2021/04/23 04:12:38;;;;;;;20.30;7.13;;;;;;;2.79;91.65;102330.53;5069051;28;20082;-74
2021/04/23 04:15:05;;;;;;;17.00;7.45;;;;;;;2.77;91.59;102334.97;5068153;28;20830;-74
2021/04/23 04:17:31;;;;;;;25.90;8.13;;;;;;;2.75;91.76;102336.75;5066849;28;20042;-74
2021/04/23 04:19:56;;;;;;;23.92;8.93;;;;;;;2.70;91.80;102335.91;5066120;28;20058;-74
2021/04/23 04:22:22;;;;;;;22.75;7.72;;;;;;;2.66;92.04;102334.13;5067513;28;20115;-75
2021/04/23 04:24:47;;;;;;;20.17;7.65;;;;;;;2.61;92.46;102346.53;5068628;28;20038;-76
2021/04/23 04:27:15;;;;;;;18.30;6.88;;;;;;;2.60;92.70;102342.13;5067627;28;20759;-74
2021/04/23 04:29:40;;;;;;;21.30;6.88;;;;;;;2.60;92.82;102342.13;5052107;28;20123;-74
2021/04/23 04:32:06;;;;;;;20.90;7.65;;;;;;;2.59;92.91;102346.56;5068138;28;20128;-74
2021/04/23 04:34:31;;;;;;;19.52;8.32;;;;;;;2.59;93.08;102351.00;5071063;28;20024;-73
2021/04/23 04:36:57;;;;;;;26.13;9.10;;;;;;;2.59;93.04;102357.19;5066209;28;20597;-74
2021/04/23 04:39:22;;;;;;;26.73;8.13;;;;;;;2.60;92.91;102355.38;5059062;28;20040;-73
2021/04/23 04:41:48;;;;;;;18.88;7.97;;;;;;;2.62;93.43;102350.97;5067482;28;20028;-74
2021/04/23 04:44:13;;;;;;;21.50;7.97;;;;;;;2.61;93.07;102365.97;5064332;28;20126;-74
2021/04/23 04:46:39;;;;;;;16.95;7.10;;;;;;;2.60;93.17;102355.38;5067139;28;20032;-75
2021/04/23 04:49:05;;;;;;;20.38;8.15;;;;;;;2.57;93.45;102366.00;5067209;28;20125;-73
2021/04/23 04:51:30;;;;;;;24.67;8.05;;;;;;;2.56;93.43;102364.25;5066717;28;20036;-74
2021/04/23 04:53:55;;;;;;;22.02;7.72;;;;;;;2.55;93.40;102367.78;5069867;28;20032;-74
2021/04/23 04:56:21;;;;;;;18.33;7.65;;;;;;;2.52;93.59;102378.41;5070190;28;20618;-74
2021/04/23 04:58:46;;;;;;;22.73;9.73;;;;;;;2.52;93.74;102381.06;5069551;28;20032;-74
2021/04/23 05:01:14;;;;;;;23.38;8.23;;;;;;;2.52;93.98;102383.72;5072130;28;20032;-74
2021/04/23 05:03:40;;;;;;;26.77;9.07;;;;;;;2.51;94.51;102388.13;5068113;28;20028;-73
2021/04/23 05:06:08;;;;;;;27.65;9.23;;;;;;;2.54;95.04;102387.22;5069818;28;20036;-75
2021/04/23 05:08:34;;;;;;;27.23;9.13;;;;;;;2.57;95.37;102389.88;5069996;28;20052;-74
2021/04/23 05:10:59;;;;;;;27.67;10.18;;;;;;;2.58;95.46;102376.63;5069668;28;20032;-74
2021/04/23 05:13:24;;;;;;;31.13;9.70;;;;;;;2.60;95.48;102384.53;5071840;28;20032;-74
2021/04/23 05:15:50;;;;;;;21.95;8.75;;;;;;;2.62;95.70;102393.38;5071543;28;20493;-74
2021/04/23 05:18:16;;;;;;;23.20;8.65;;;;;;;2.64;95.76;102397.78;5065466;28;20051;-76
2021/04/23 05:20:41;;;;;;;20.92;8.55;;;;;;;2.65;96.13;102404.88;5071233;28;20112;-73
2021/04/23 05:23:07;;;;;;;27.70;10.00;;;;;;;2.68;96.47;102398.66;5065293;28;20024;-74
2021/04/23 05:25:35;;;;;;;31.75;9.45;;;;;;;2.73;96.63;102396.84;5071572;28;20028;-74
2021/04/23 05:28:01;;;;;;;25.17;9.90;;;;;;;2.79;96.51;102407.41;5069188;28;20043;-74
2021/04/23 05:30:29;;;;;;;27.27;9.27;;;;;;;2.86;96.56;102414.47;5069374;28;20449;-74
2021/04/23 05:32:57;;;;;;;25.85;9.02;;;;;;;2.94;96.49;102402.03;5068481;28;20447;-75
2021/04/23 05:35:23;;;;;;;20.98;8.55;;;;;;;3.02;96.34;102404.66;5071201;28;20580;-74
2021/04/23 05:37:50;;;;;;;26.95;10.25;;;;;;;3.11;96.67;102408.13;5069929;28;20108;-74
2021/04/23 05:40:20;;;;;;;22.63;8.57;;;;;;;3.21;97.06;102412.47;5062093;28;20040;-74
2021/04/23 05:42:46;;;;;;;24.42;9.95;;;;;;;3.32;96.99;102416.81;5060613;28;20512;-74
2021/04/23 05:45:13;;;;;;;38.72;11.95;;;;;;;3.47;97.42;102414.91;5070708;28;20037;-74
2021/04/23 05:47:39;;;;;;;36.05;10.55;;;;;;;3.68;98.47;102424.50;5069697;28;20095;-73
2021/04/23 05:50:07;;;;;;;32.60;9.95;;;;;;;3.79;98.67;102422.63;5071114;28;20040;-75
2021/04/23 05:52:33;;;;;;;32.20;10.15;;;;;;;3.96;98.75;102425.97;5060481;28;20043;-74
2021/04/23 05:54:58;;;;;;;30.08;10.23;;;;;;;4.22;98.59;102430.16;5062163;28;20028;-74
2021/04/23 05:57:24;;;;;;;29.00;9.70;;;;;;;4.54;97.67;102433.34;5063264;28;20052;-75
2021/04/23 05:59:49;;;;;;;38.60;10.55;;;;;;;4.97;96.19;102432.78;5074375;28;20476;-75
2021/04/23 06:02:15;;;;;;;25.10;9.75;;;;;;;5.37;94.39;102439.25;5064450;28;20151;-74
2021/04/23 06:04:40;;;;;;;35.95;10.05;;;;;;;5.79;91.71;102442.16;5067826;28;20548;-75
2021/04/23 06:07:05;;;;;;;28.02;10.93;;;;;;;6.13;89.78;102446.00;5069613;28;20453;-74
2021/04/23 06:09:31;;;;;;;23.35;10.57;;;;;;;6.42;87.96;102445.44;5064337;28;20032;-74
2021/04/23 06:11:57;;;;;;;28.25;10.68;;;;;;;6.67;85.56;102448.50;5067353;28;20028;-75
2021/04/23 06:14:23;;;;;;;30.98;10.25;;;;;;;6.83;83.90;102449.94;5060875;28;20039;-75
2021/04/23 06:16:51;;;;;;;28.17;9.45;;;;;;;6.95;83.45;102444.34;5059323;28;20027;-75
2021/04/23 06:19:17;;;;;;;30.45;10.70;;;;;;;6.97;83.21;102430.97;5067487;28;20479;-76
2021/04/23 06:21:42;;;;;;;27.65;9.57;;;;;;;7.05;82.83;102443.22;5069758;28;20039;-75
2021/04/23 06:24:08;;;;;;;24.45;9.50;;;;;;;7.06;82.37;102438.75;5068271;28;20383;-75
2021/04/23 06:26:33;;;;;;;23.40;9.75;;;;;;;6.90;82.35;102444.44;5068770;28;20039;-75
2021/04/23 06:28:59;;;;;;;23.48;9.02;;;;;;;6.72;83.71;102447.50;5076204;28;20530;-75
2021/04/23 06:31:24;;;;;;;28.30;9.80;;;;;;;6.60;84.50;102446.88;5070903;28;20496;-75
2021/04/23 06:33:51;;;;;;;26.33;8.55;;;;;;;6.44;85.08;102452.50;5067136;28;20055;-75
2021/04/23 06:36:19;;;;;;;33.85;9.00;;;;;;;6.46;86.02;102452.50;5065429;28;20047;-75
2021/04/23 06:38:44;;;;;;;33.58;9.73;;;;;;;6.39;86.52;102449.06;5063163;28;20048;-75
2021/04/23 06:41:11;;;;;;;30.55;8.65;;;;;;;6.36;87.34;102459.78;5068112;28;20033;-75
2021/04/23 06:43:37;;;;;;;26.67;8.63;;;;;;;6.44;88.27;102468.50;5067991;28;20120;-75
2021/04/23 06:46:03;;;;;;;27.58;8.55;;;;;;;6.49;88.16;102455.97;5051257;28;20856;-74
2021/04/23 06:48:31;;;;;;;23.75;8.27;;;;;;;6.73;86.66;102461.72;5066987;28;20107;-75
2021/04/23 06:50:56;;;;;;;25.00;7.72;;;;;;;6.91;84.08;102469.34;5069816;28;20055;-75
2021/04/23 06:53:23;;;;;;;18.88;8.65;;;;;;;7.03;83.31;102470.88;5068617;28;20032;-74
2021/04/23 06:55:49;;;;;;;27.98;8.65;;;;;;;7.17;83.49;102464.31;5071047;28;20534;-74
2021/04/23 06:58:14;;;;;;;22.58;7.97;;;;;;;7.53;81.83;102469.75;5059793;28;20036;-74
2021/04/23 07:00:41;;;;;;;42.20;14.43;;;;;;;8.05;79.59;102475.53;5061494;28;20405;-74
2021/04/23 07:03:09;;;;;;;15.13;7.75;;;;;;;8.77;75.49;102471.78;5059249;28;20029;-75
2021/04/23 07:05:40;;;;;;;20.73;7.30;;;;;;;9.50;70.72;102474.94;5063952;28;20082;-75
2021/04/23 07:08:05;;;;;;;17.55;5.90;;;;;;;10.11;66.12;102486.31;5067409;28;20047;-74
2021/04/23 07:10:31;;;;;;;24.00;6.30;;;;;;;10.72;64.39;102486.84;5070189;28;20036;-75
2021/04/23 07:12:58;;;;;;;16.67;6.13;;;;;;;10.98;61.88;102493.94;5062671;28;20039;-75
2021/04/23 07:15:26;;;;;;;15.48;6.80;;;;;;;11.36;60.83;102491.50;5051000;28;20115;-75
2021/04/23 07:17:53;;;;;;;13.70;5.80;;;;;;;11.67;59.16;102495.66;5050244;28;20055;-74
2021/04/23 07:20:19;;;;;;;18.90;6.57;;;;;;;11.65;59.33;102508.31;5063133;28;20028;-74
2021/04/23 07:22:45;;;;;;;16.50;6.25;;;;;;;11.76;57.96;102495.31;5068132;28;20036;-75
2021/04/23 07:25:11;;;;;;;15.35;5.53;;;;;;;12.08;55.70;102497.56;5059633;28;20458;-75
2021/04/23 07:27:36;;;;;;;14.80;4.90;;;;;;;12.16;54.46;102506.16;5067232;28;20028;-75
2021/04/23 07:30:07;;;;;;;13.70;4.20;;;;;;;12.55;53.49;102497.31;5064336;28;20078;-75
2021/04/23 07:32:33;;;;;;;13.55;4.60;;;;;;;13.06;51.58;102499.47;5059248;28;20032;-75
2021/04/23 07:34:59;;;;;;;13.40;3.90;;;;;;;13.17;49.47;102501.69;5062215;28;20040;-76
2021/04/23 07:37:25;;;;;;;10.25;4.32;;;;;;;13.12;48.52;102504.59;5071279;28;20033;-75
2021/04/23 07:39:51;;;;;;;16.23;4.50;;;;;;;13.60;49.05;102497.81;5068777;28;20127;-75
2021/04/23 07:42:16;;;;;;;9.02;3.97;;;;;;;13.24;46.31;102501.34;5051108;28;20477;-75
2021/04/23 07:44:42;;;;;;;15.57;3.83;;;;;;;13.03;47.79;102498.72;5062666;28;20038;-76
2021/04/23 07:47:08;;;;;;;21.27;4.93;;;;;;;13.47;46.89;102494.84;5063545;28;20056;-75
2021/04/23 07:49:34;;;;;;;8.95;3.80;;;;;;;13.84;45.70;102506.53;5065620;28;20808;-75
2021/04/23 07:51:59;;;;;;;13.80;3.95;;;;;;;13.74;46.61;102504.31;5063158;28;20071;-75
2021/04/23 07:54:25;;;;;;;11.80;3.75;;;;;;;13.79;47.75;102504.06;5065979;28;20028;-75
2021/04/23 07:56:50;;;;;;;11.02;3.78;;;;;;;13.75;46.02;102500.66;5041709;28;20075;-75
2021/04/23 07:59:15;;;;;;;11.30;4.40;;;;;;;14.16;46.74;102495.88;5064709;28;20036;-77
2021/04/23 08:01:41;;;;;;;22.67;4.53;;;;;;;14.72;43.95;102497.47;5061211;28;20013;-76
2021/04/23 08:04:06;;;;;;;13.65;3.70;;;;;;;15.12;42.62;102506.97;5068325;28;20107;-75
2021/04/23 08:06:32;;;;;;;9.15;3.45;;;;;;;15.56;41.19;102504.53;5062156;28;20032;-76
2021/04/23 08:08:58;;;;;;;9.38;3.97;;;;;;;15.14;40.05;102499.66;5057081;28;20036;-76
2021/04/23 08:11:24;;;;;;;19.90;4.07;;;;;;;15.26;39.48;102507.09;5061671;28;20464;-75
2021/04/23 08:13:50;;;;;;;9.05;3.58;;;;;;;14.69;39.32;102499.47;5065738;28;20032;-77
2021/04/23 08:16:16;;;;;;;6.43;3.50;;;;;;;14.77;40.11;102508.03;5065592;28;20064;-76
2021/04/23 08:18:42;;;;;;;8.25;3.33;;;;;;;14.88;40.11;102500.22;5064479;28;20078;-76
2021/04/23 08:21:08;;;;;;;12.20;4.07;;;;;;;15.13;40.02;102500.63;5081065;28;20435;-76
2021/04/23 08:23:34;;;;;;;11.30;3.60;;;;;;;15.53;39.81;102493.03;5063666;28;20029;-77
2021/04/23 08:26:03;;;;;;;6.28;3.30;;;;;;;15.96;39.50;102492.28;5054374;28;20457;-76
2021/04/23 08:28:29;;;;;;;14.15;3.60;;;;;;;16.02;37.94;102496.47;5070263;28;20112;-77
2021/04/23 08:30:55;;;;;;;8.88;3.05;;;;;;;15.78;38.52;102496.06;5063143;28;20470;-76
2021/04/23 08:33:20;;;;;;;10.10;4.10;;;;;;;15.61;39.19;102497.06;5069836;28;20112;-77
2021/04/23 08:35:46;;;;;;;10.13;3.28;;;;;;;15.60;39.58;102494.41;5069713;28;20123;-76
2021/04/23 08:38:12;;;;;;;9.90;3.58;;;;;;;15.44;39.46;102496.19;5068110;28;20025;-76
2021/04/23 08:40:38;;;;;;;7.82;3.25;;;;;;;15.86;39.66;102491.06;5063788;28;20062;-76
2021/04/23 08:43:04;;;;;;;9.63;3.47;;;;;;;15.69;37.52;102493.88;5069454;28;20078;-76
2021/04/23 08:45:30;;;;;;;8.45;3.10;;;;;;;15.80;38.99;102494.13;5066272;28;20066;-76
2021/04/23 08:47:57;;;;;;;9.27;2.95;;;;;;;15.76;38.10;102496.16;5071827;28;20412;-76
2021/04/23 08:50:25;;;;;;;6.45;3.05;;;;;;;16.06;39.63;102498.91;5069579;28;20025;-76
2021/04/23 08:52:51;;;;;;;10.90;3.80;;;;;;;16.05;40.60;102497.16;5065448;28;20413;-76
2021/04/23 08:55:20;;;;;;;9.20;3.47;;;;;;;15.74;38.32;102481.81;5071161;28;20029;-76
2021/04/23 08:57:46;;;;;;;8.80;3.58;;;;;;;16.07;37.09;102495.22;5061574;28;20135;-76
2021/04/23 09:00:12;;;;;;;9.68;3.60;;;;;;;15.77;37.92;102486.19;5067959;28;20111;-76
2021/04/23 09:02:38;;;;;;;14.00;4.20;;;;;;;15.51;39.44;102479.53;5069172;28;20029;-77
2021/04/23 09:05:05;;;;;;;9.45;3.25;;;;;;;15.66;39.46;102480.53;5067555;28;20091;-77
2021/04/23 09:07:30;;;;;;;13.90;3.38;;;;;;;15.98;39.05;102479.53;5064019;28;20028;-76
2021/04/23 09:10:09;;;;;;;9.77;3.35;;;;;;;15.93;38.28;102486.16;5063645;28;20371;-77
2021/04/23 09:12:35;;;;;;;8.55;4.00;;;;;;;15.98;38.11;102484.09;5079326;28;20836;-77
2021/04/23 09:15:02;;;;;;;13.60;3.88;;;;;;;15.85;37.70;102483.94;5061145;28;20093;-77
2021/04/23 09:17:29;;;;;;;10.55;3.30;;;;;;;15.78;37.96;102482.53;5061047;28;20064;-77
2021/04/23 09:19:56;;;;;;;11.23;3.47;;;;;;;15.88;37.20;102483.72;5053374;28;20705;-77
2021/04/23 09:22:27;;;;;;;11.98;3.33;;;;;;;15.47;39.11;102488.78;5065090;28;20494;-77
2021/04/23 09:24:57;;;;;;;9.90;3.42;;;;;;;15.43;38.76;102486.38;5075832;28;20033;-77
2021/04/23 09:27:49;;;;;;;11.95;3.75;;;;;;;15.60;38.35;102489.00;5071284;28;20067;-77
2021/04/23 09:30:15;;;;;;;12.00;3.33;;;;;;;15.51;37.81;102487.66;5069668;28;20276;-77
2021/04/23 09:32:42;;;;;;;13.60;3.55;;;;;;;15.41;38.86;102490.97;5075056;28;20024;-77
2021/04/23 09:35:16;;;;;;;9.52;3.55;;;;;;;15.30;38.26;102484.34;5071265;28;20043;-77
2021/04/23 09:37:53;;;;;;;10.43;3.60;;;;;;;15.26;38.57;102473.75;5064577;28;20512;-76
2021/04/23 09:40:34;;;;;;;14.82;4.68;;;;;;;15.53;39.90;102477.66;5065728;28;20071;-76
2021/04/23 09:43:05;;;;;;;8.57;4.07;;;;;;;15.48;39.26;102479.72;5052669;28;20817;-76
2021/04/23 09:45:47;;;;;;;12.50;3.78;;;;;;;15.43;38.70;102476.38;5070309;28;20068;-76
2021/04/23 09:48:23;;;;;;;13.02;3.72;;;;;;;15.16;39.98;102476.13;5071049;28;20024;-76
2021/04/23 09:50:50;;;;;;;12.05;3.72;;;;;;;15.42;41.71;102473.78;5062865;28;20033;-76
2021/04/23 09:53:15;;;;;;;11.77;4.38;;;;;;;15.29;39.13;102477.19;5065799;28;20111;-77
2021/04/23 09:55:41;;;;;;;8.05;3.60;;;;;;;15.27;41.53;102470.97;5063669;28;20111;-76
2021/04/23 09:58:09;;;;;;;9.65;4.15;;;;;;;15.22;39.45;102481.19;5067281;28;20044;-76
2021/04/23 10:00:38;;;;;;;9.40;3.60;;;;;;;15.03;39.30;102477.75;5063844;28;20445;-77
2021/04/23 10:03:05;;;;;;;14.00;4.95;;;;;;;15.12;40.87;102469.13;5084567;28;20036;-76
2021/04/23 10:05:35;;;;;;;12.23;4.38;;;;;;;15.15;40.81;102471.66;5064780;28;20035;-77
2021/04/23 10:08:11;;;;;;;7.88;3.50;;;;;;;15.20;42.00;102469.56;5067161;28;20038;-76
2021/04/23 10:10:39;;;;;;;12.23;4.47;;;;;;;15.40;39.42;102468.44;5066106;28;20078;-77
2021/04/23 10:13:08;;;;;;;14.98;3.80;;;;;;;15.30;42.05;102468.13;5066616;28;20068;-76
2021/04/23 10:15:41;;;;;;;10.13;3.60;;;;;;;15.36;41.48;102459.66;5066529;28;20087;-76
2021/04/23 10:18:09;;;;;;;13.90;4.25;;;;;;;15.44;39.03;102464.59;5069545;28;20036;-77
2021/04/23 10:20:44;;;;;;;7.88;3.38;;;;;;;15.28;39.75;102467.31;5064152;28;20040;-76
2021/04/23 10:23:11;;;;;;;11.35;3.78;;;;;;;15.18;41.39;102452.53;5068748;28;20037;-76
2021/04/23 10:25:38;;;;;;;11.23;4.75;;;;;;;15.30;42.04;102453.72;5065403;28;20029;-77
2021/04/23 10:28:08;;;;;;;12.95;4.70;;;;;;;15.33;41.43;102448.97;5065852;28;20472;-77
2021/04/23 10:30:37;;;;;;;12.07;4.93;;;;;;;15.02;41.62;102459.78;5062975;28;20029;-76
2021/04/23 10:33:06;;;;;;;13.27;4.55;;;;;;;15.17;41.43;102458.94;5068773;28;20044;-76
2021/04/23 10:35:32;;;;;;;11.43;4.50;;;;;;;15.21;39.50;102454.22;5064962;28;20028;-76
2021/04/23 10:38:06;;;;;;;10.50;4.25;;;;;;;15.11;41.88;102455.69;5050422;28;20040;-77
2021/04/23 10:40:33;;;;;;;10.10;4.07;;;;;;;15.58;43.11;102453.03;5063898;28;20056;-76
2021/04/23 10:43:08;;;;;;;9.23;4.05;;;;;;;15.56;41.49;102455.81;5058401;28;20037;-77
2021/04/23 10:45:48;;;;;;;8.52;3.60;;;;;;;15.28;42.30;102448.38;5067119;28;20032;-76
2021/04/23 10:48:16;;;;;;;15.10;4.93;;;;;;;15.39;40.39;102456.75;5066835;28;20032;-77
2021/04/23 10:50:46;;;;;;;16.33;4.70;;;;;;;15.50;40.55;102449.84;5065380;28;20107;-77
2021/04/23 10:53:15;;;;;;;10.40;4.70;;;;;;;15.42;41.03;102457.53;5063992;28;20044;-76
2021/04/23 10:55:51;;;;;;;15.00;5.07;;;;;;;15.42;39.07;102441.31;5066778;28;20131;-76
2021/04/23 10:58:35;;;;;;;13.38;4.82;;;;;;;15.44;40.98;102450.19;5054896;28;20514;-76
2021/04/23 11:01:02;;;;;;;14.70;4.45;;;;;;;15.60;41.20;102451.13;5065038;28;20028;-77
2021/04/23 11:03:35;;;;;;;11.93;4.72;;;;;;;15.42;41.96;102449.44;5065796;28;20443;-76
2021/04/23 11:06:06;;;;;;;12.80;4.00;;;;;;;15.43;39.93;102437.66;5067563;28;20040;-77
2021/04/23 11:08:34;;;;;;;11.88;4.45;;;;;;;15.73;41.00;102435.91;5064834;28;20603;-76
2021/04/23 11:11:02;;;;;;;13.75;4.10;;;;;;;15.74;40.09;102434.91;5067186;28;20027;-76
2021/04/23 11:13:33;;;;;;;13.25;4.72;;;;;;;15.88;39.85;102437.69;5065627;28;20119;-76
2021/04/23 11:16:20;;;;;;;8.05;4.15;;;;;;;15.60;39.58;102429.47;5065102;28;20032;-76
2021/04/23 11:18:47;;;;;;;10.45;3.50;;;;;;;15.67;39.41;102437.13;5056321;28;20033;-77
2021/04/23 11:21:34;;;;;;;11.85;4.40;;;;;;;15.56;39.82;102433.28;5058607;28;20048;-77
2021/04/23 11:24:10;;;;;;;10.25;3.92;;;;;;;15.50;39.75;102433.59;5062452;28;20047;-76